Siirt, Turkey

4:53 AM EEST on September 01, 2015 (GMT +0300)
Mus Air Base | | Change Station
CLOSE
Current Station
Airport
Location: Mus,
Elevation: 4154 ft
Nearby Weather Stations

Elev 4154 ft 38.75 °N, 41.66 °E | Updated 32 minutes ago

Clear
Clear
61 °F
Feels Like 61 °F
N
5
Wind Variable Wind from SSW

Today
High -- | Low -- °F
--% Chance of Precip.
Yesterday
High -- | Low -- °F
Precip. -- in
5:41 AM 6:42 PM
Waning Gibbous, 92% visible
Pressure 30.04 in
Visibility -9999.0 miles
Clouds
Dew Point 43 °F
Humidity 52%
Rainfall 0.00 in
Snow Depth Not available.
UV Not available.
Pollen Not available.
Air Quality Not available.
Flu Activity Not available.
SPECI LTCK 010121Z 20004KT 100V270 CAVOK 16/06 Q1017 RMK RWY11 VRB05KT
Pressure 30.04 in
Visibility -9999.0 miles
Clouds
Dew Point 43 °F
Humidity 52%
Rainfall 0.00 in
Snow Depth Not available.
UV Not available.
Pollen Not available.
Air Quality Not available.
Flu Activity Not available.
SPECI LTCK 010121Z 20004KT 100V270 CAVOK 16/06 Q1017 RMK RWY11 VRB05KT

10-Day Weather Forecast

×

Almanac

Astronomy

Sep. 01, 2015 Rise Set
Actual Time
Civil Twilight
Nautical Twilight
Astronomical Twilight
Moon
Length of Visible Light
Length of Day
Tomorrow will be .
, % of the Moon is Illuminated

Today's Extremes

Country Highs Country Lows

Community

WunderPhotos

Upload Photos

1,851,427 photos uploaded!

WunderBlogs® & News

Nearby

Air Quality

  Air Quality AQ Index Pollutant
Not available.

Snow Depth

Station Depth Elevation

Earthquake Activity

City Distance Mag. Time & Date
Minimum magnitude displayed is 2.5.

Coastal Water Temperatures

Place Temperature

Stations

Nearby Weather Stations

Station Location Temp. Windchill Dew Point Humidity Wind Precip. Elev Updated Type